地図

経路データ

SID SEASON NUMBER BASIN SUBBASIN NAME ISO_TIME NATURE LAT LON WMO_WIND WMO_PRES WMO_AGENCY TRACK_TYPE DIST2LAND LANDFALL IFLAG USA_AGENCY USA_ATCF_ID USA_LAT USA_LON USA_RECORD USA_STATUS USA_WIND USA_PRES USA_SSHS USA_R34_NE USA_R34_SE USA_R34_SW USA_R34_NW USA_R50_NE USA_R50_SE USA_R50_SW USA_R50_NW USA_R64_NE USA_R64_SE USA_R64_SW USA_R64_NW USA_POCI USA_ROCI USA_RMW USA_EYE TOKYO_LAT TOKYO_LON TOKYO_GRADE TOKYO_WIND TOKYO_PRES TOKYO_R50_DIR TOKYO_R50_LONG TOKYO_R50_SHORT TOKYO_R30_DIR TOKYO_R30_LONG TOKYO_R30_SHORT TOKYO_LAND CMA_LAT CMA_LON CMA_CAT CMA_WIND CMA_PRES HKO_LAT HKO_LON HKO_CAT HKO_WIND HKO_PRES NEWDELHI_LAT NEWDELHI_LON NEWDELHI_GRADE NEWDELHI_WIND NEWDELHI_PRES NEWDELHI_CI NEWDELHI_DP NEWDELHI_POCI REUNION_LAT REUNION_LON REUNION_TYPE REUNION_WIND REUNION_PRES REUNION_TNUM REUNION_CI REUNION_RMW REUNION_R34_NE REUNION_R34_SE REUNION_R34_SW REUNION_R34_NW REUNION_R50_NE REUNION_R50_SE REUNION_R50_SW REUNION_R50_NW REUNION_R64_NE REUNION_R64_SE REUNION_R64_SW REUNION_R64_NW BOM_LAT BOM_LON BOM_TYPE BOM_WIND BOM_PRES BOM_TNUM BOM_CI BOM_RMW BOM_R34_NE BOM_R34_SE BOM_R34_SW BOM_R34_NW BOM_R50_NE BOM_R50_SE BOM_R50_SW BOM_R50_NW BOM_R64_NE BOM_R64_SE BOM_R64_SW BOM_R64_NW BOM_ROCI BOM_POCI BOM_EYE BOM_POS_METHOD BOM_PRES_METHOD NADI_LAT NADI_LON NADI_CAT NADI_WIND NADI_PRES WELLINGTON_LAT WELLINGTON_LON WELLINGTON_WIND WELLINGTON_PRES DS824_LAT DS824_LON DS824_STAGE DS824_WIND DS824_PRES TD9636_LAT TD9636_LON TD9636_STAGE TD9636_WIND TD9636_PRES TD9635_LAT TD9635_LON TD9635_WIND TD9635_PRES TD9635_ROCI NEUMANN_LAT NEUMANN_LON NEUMANN_CLASS NEUMANN_WIND NEUMANN_PRES MLC_LAT MLC_LON MLC_CLASS MLC_WIND MLC_PRES USA_GUST BOM_GUST BOM_GUST_PER REUNION_GUST REUNION_GUST_PER USA_SEAHGT USA_SEARAD_NE USA_SEARAD_SE USA_SEARAD_SW USA_SEARAD_NW STORM_SPEED STORM_DIR
1961017S10135 1961 11 SP EA NOT_NAMED 1961-01-16 23:00:00 NR -9.90000 135.100 main 248 248 __________O___ -1 -9.90000 135.100 1 2 0
1961017S10135 1961 11 SP EA NOT_NAMED 1961-01-17 00:00:00 TS -9.89485 135.074 main 248 247 _________OP___ -1 -9.90000 135.100 TC -9.89227 135.061 1 2 289
1961017S10135 1961 11 SI WA NOT_NAMED 1961-01-17 03:00:00 TS -9.85629 134.968 main 247 247 _________PP___ -1 -9.83751 135.000 TC -9.86882 134.947 1 2 289
1961017S10135 1961 11 SI WA NOT_NAMED 1961-01-17 06:00:00 TS -9.82539 134.866 main 254 249 _________OP___ -1 -9.80000 134.900 TC -9.84444 134.841 1 2 284
1961017S10135 1961 11 SI WA NOT_NAMED 1961-01-17 09:00:00 TS -9.80924 134.775 main 249 244 _________PP___ -1 -9.80000 134.800 TC -9.81849 134.750 1 2 279
1961017S10135 1961 11 SI WA NOT_NAMED 1961-01-17 11:00:00 TS -9.80154 134.717 main 244 244 _________PO___ -1 -9.80309 134.733 TC -9.80000 134.700 2 2 279
1961017S10135 1961 11 SI WA NOT_NAMED 1961-01-17 12:00:00 TS -9.79518 134.689 main 244 240 _________OP___ -1 -9.80000 134.700 TC -9.79035 134.679 2 2 296
1961017S10135 1961 11 SI WA NOT_NAMED 1961-01-17 15:00:00 TS -9.75543 134.616 main 240 240 _________PP___ -1 -9.74998 134.615 TC -9.76088 134.617 2 2 294
1961017S10135 1961 11 SI WA NOT_NAMED 1961-01-17 18:00:00 TS -9.71661 134.513 main 247 244 _________OP___ -1 -9.70000 134.500 TC -9.73322 134.526 2 3 282
1961017S10135 1961 11 SI WA NOT_NAMED 1961-01-17 21:00:00 TS -9.70153 134.359 main 244 237 _________PP___ -1 -9.69241 134.353 TC -9.71064 134.366 2 4 273
1961017S10135 1961 11 SI WA NOT_NAMED 1961-01-17 23:00:00 TS -9.69866 134.200 main 237 231 _________PO___ -1 -9.69732 134.200 TC -9.70000 134.200 1 5 271
1961017S10135 1961 11 SI WA NOT_NAMED 1961-01-18 00:00:00 TS -9.69589 134.096 main 231 209 _________OP___ -1 -9.70000 134.100 TC -9.69178 134.092 1 7 272
1961017S10135 1961 11 SI WA NOT_NAMED 1961-01-18 03:00:00 TS -9.68527 133.698 main 209 193 _________PP___ -1 -9.69999 133.702 TC -9.67055 133.693 1 9 271
1961017S10135 1961 11 SI WA NOT_NAMED 1961-01-18 06:00:00 TS -9.68083 133.204 main 193 173 _________OP___ -1 -9.70000 133.200 TC -9.66167 133.208 1 10 270
1961017S10135 1961 11 SI WA NOT_NAMED 1961-01-18 09:00:00 TS -9.67977 132.668 main 173 168 _________PP___ -1 -9.68498 132.665 TC -9.67457 132.670 1 11 269
1961017S10135 1961 11 SI WA NOT_NAMED 1961-01-18 11:00:00 TS -9.69428 132.294 main 168 168 _________PO___ -1 -9.68856 132.289 TC -9.70000 132.300 1 11 267
1961017S10135 1961 11 SI WA NOT_NAMED 1961-01-18 12:00:00 TS -9.70814 132.109 main 168 160 _________OP___ -1 -9.70000 132.100 TC -9.71629 132.118 1 11 263
1961017S10135 1961 11 SI WA NOT_NAMED 1961-01-18 15:00:00 TS -9.78531 131.548 main 166 156 _________PP___ -1 -9.78495 131.543 TC -9.78568 131.552 1 11 261
1961017S10135 1961 11 SI WA NOT_NAMED 1961-01-18 18:00:00 TS -9.89164 130.990 main 157 145 _________OP___ -1 -9.90000 131.000 TC -9.88327 130.981 1 11 259
1961017S10135 1961 11 SI WA NOT_NAMED 1961-01-18 21:00:00 TS -9.99541 130.456 main 145 138 _________PP___ -1 -9.98495 130.477 TC -10.0059 130.435 1 10 258
1961017S10135 1961 11 SI WA NOT_NAMED 1961-01-18 23:00:00 TS -10.0776 130.126 main 141 141 _________PO___ -1 -10.0552 130.153 TC -10.1000 130.100 1 10 255
1961017S10135 1961 11 SI WA NOT_NAMED 1961-01-19 00:00:00 TS -10.1222 129.976 main 145 138 _________OP___ -1 -10.1000 130.000 TC -10.1444 129.953 1 9 249
1961017S10135 1961 11 SI WA NOT_NAMED 1961-01-19 03:00:00 TS -10.2888 129.564 main 139 139 _________PP___ -1 -10.2849 129.578 TC -10.2927 129.550 1 9 245
1961017S10135 1961 11 SI WA NOT_NAMED 1961-01-19 06:00:00 TS -10.4820 129.193 main 148 148 _________OP___ -1 -10.5000 129.200 TC -10.4640 129.186 1 8 242
1961017S10135 1961 11 SI WA NOT_NAMED 1961-01-19 09:00:00 TS -10.6715 128.847 main 167 167 _________PP___ -1 -10.6849 128.857 TC -10.6580 128.837 1 8 240
1961017S10135 1961 11 SI WA NOT_NAMED 1961-01-19 11:00:00 TS -10.8109 128.613 main 181 181 _________PO___ -1 -10.8218 128.625 TC -10.8000 128.600 1 9 239
1961017S10135 1961 11 SI WA NOT_NAMED 1961-01-19 12:00:00 TS -10.8922 128.478 main 187 187 _________OP___ -1 -10.9000 128.500 TC -10.8844 128.457 1 10 237
1961017S10135 1961 11 SI WA NOT_NAMED 1961-01-19 15:00:00 TS -11.1832 128.033 main 231 231 _________PP___ -1 -11.2076 128.050 TC -11.1588 128.015 1 10 236
1961017S10135 1961 11 SI WA NOT_NAMED 1961-01-19 18:00:00 TS -11.4678 127.593 main 263 235 _________OP___ -1 -11.5000 127.600 TC -11.4355 127.586 1 10 238
1961017S10135 1961 11 SI WA NOT_NAMED 1961-01-19 21:00:00 TS -11.6823 127.206 main 235 223 _________PP___ -1 -11.6875 127.205 TC -11.6770 127.207 1 8 242
1961017S10135 1961 11 SI WA NOT_NAMED 1961-01-19 23:00:00 TS -11.7846 126.994 main 223 223 _________PO___ -1 -11.7693 126.989 TC -11.8000 127.000 1 6 245
1961017S10135 1961 11 SI WA NOT_NAMED 1961-01-20 00:00:00 TS -11.8192 126.910 main 223 213 _________OP___ -1 -11.8000 126.900 TC -11.8384 126.920 1 4 249
1961017S10135 1961 11 SI WA NOT_NAMED 1961-01-20 03:00:00 TS -11.8882 126.723 main 213 213 _________PP___ -1 -11.8724 126.705 TC -11.9040 126.741 1 3 253
1961017S10135 1961 11 SI WA NOT_NAMED 1961-01-20 06:00:00 TS -11.9088 126.614 main 215 215 _________OP___ -1 -11.9000 126.600 TC -11.9175 126.627 1 2 265
1961017S10135 1961 11 SI WA NOT_NAMED 1961-01-20 09:00:00 TS -11.9034 126.546 main 217 217 _________PP___ -1 -11.9000 126.542 TC -11.9068 126.549 1 1 276
1961017S10135 1961 11 SI WA NOT_NAMED 1961-01-20 11:00:00 TS -11.8985 126.509 main 217 217 _________PO___ -1 -11.8969 126.517 TC -11.9000 126.500 1 1 270
1961017S10135 1961 11 SI WA NOT_NAMED 1961-01-20 12:00:00 TS -11.9029 126.482 main 217 217 _________OP___ -1 -11.9000 126.500 TC -11.9059 126.465 1 2 252
1961017S10135 1961 11 SI WA NOT_NAMED 1961-01-20 15:00:00 TS -11.9362 126.386 main 219 211 _________PP___ -1 -11.9500 126.408 TC -11.9224 126.364 1 2 251
1961017S10135 1961 11 SI WA NOT_NAMED 1961-01-20 18:00:00 TS -11.9712 126.284 main 211 211 _________OP___ -1 -12.0000 126.300 TC -11.9424 126.268 1 2 257
1961017S10135 1961 11 SI WA NOT_NAMED 1961-01-20 21:00:00 TS -11.9822 126.189 main 215 215 _________PP___ -1 -11.9925 126.207 TC -11.9719 126.170 1 2 261
1961017S10135 1961 11 SI WA NOT_NAMED 1961-01-20 23:00:00 TS -11.9956 126.120 main 219 219 _________PO___ -1 -11.9912 126.139 TC -12.0000 126.100 2 2 255
1961017S10135 1961 11 SI WA NOT_NAMED 1961-01-21 00:00:00 TS -12.0098 126.081 main 219 213 _________OP___ -1 -12.0000 126.100 TC -12.0195 126.062 2 3 240
1961017S10135 1961 11 SI WA NOT_NAMED 1961-01-21 03:00:00 TS -12.0911 125.946 main 213 202 _________PP___ -1 -12.0925 125.950 TC -12.0896 125.941 2 3 237
1961017S10135 1961 11 SI WA NOT_NAMED 1961-01-21 06:00:00 TS -12.1849 125.807 main 204 195 _________OP___ -1 -12.2000 125.800 TC -12.1697 125.815 2 3 237
1961017S10135 1961 11 SI WA NOT_NAMED 1961-01-21 09:00:00 TS -12.2540 125.689 main 195 195 _________PP___ -1 -12.2575 125.692 TC -12.2505 125.686 2 3 240
1961017S10135 1961 11 SI WA NOT_NAMED 1961-01-21 11:00:00 TS -12.2930 125.615 main 197 197 _________PO___ -1 -12.2860 125.631 TC -12.3000 125.600 2 2 245
1961017S10135 1961 11 SI WA NOT_NAMED 1961-01-21 12:00:00 TS -12.3038 125.586 main 197 197 _________OP___ -1 -12.3000 125.600 TC -12.3076 125.572 2 2 249
1961017S10135 1961 11 SI WA NOT_NAMED 1961-01-21 15:00:00 TS -12.3349 125.504 main 201 190 _________PP___ -1 -12.3500 125.515 TC -12.3199 125.493 2 2 250
1961017S10135 1961 11 SI WA NOT_NAMED 1961-01-21 18:00:00 TS -12.3716 125.398 main 194 194 _________OP___ -1 -12.4000 125.400 TC -12.3432 125.395 2 3 253
1961017S10135 1961 11 SI WA NOT_NAMED 1961-01-21 21:00:00 TS -12.4122 125.245 main 203 199 _________PP___ -1 -12.4124 125.245 TC -12.4119 125.246 2 4 250
1961017S10135 1961 11 SI WA NOT_NAMED 1961-01-21 23:00:00 TS -12.4774 125.097 main 199 199 _________PO___ -1 -12.4547 125.095 TC -12.5000 125.100 1 5 243
1961017S10135 1961 11 SI WA NOT_NAMED 1961-01-22 00:00:00 TS -12.5308 125.002 main 205 194 _________OP___ -1 -12.5000 125.000 TC -12.5616 125.004 1 8 236
1961017S10135 1961 11 SI WA NOT_NAMED 1961-01-22 03:00:00 TS -12.7773 124.642 main 199 194 _________PP___ -1 -12.7551 124.630 TC -12.7996 124.654 1 10 233
1961017S10135 1961 11 SI WA NOT_NAMED 1961-01-22 06:00:00 TS -13.1012 124.220 main 199 194 _________OP___ -1 -13.1000 124.200 TC -13.1023 124.240 1 11 231
1961017S10135 1961 11 SI WA NOT_NAMED 1961-01-22 09:00:00 TS -13.4355 123.798 main 202 194 _________PP___ -1 -13.4199 123.800 TC -13.4511 123.795 1 11 230
1961017S10135 1961 11 SI WA NOT_NAMED 1961-01-22 11:00:00 TS -13.6818 123.517 main 209 209 _________PO___ -1 -13.6635 123.533 TC -13.7000 123.500 1 11 227
1961017S10135 1961 11 SI WA NOT_NAMED 1961-01-22 12:00:00 TS -13.8180 123.377 main 213 209 _________OP___ -1 -13.8000 123.400 TC -13.8360 123.353 1 12 222
1961017S10135 1961 11 SI WA NOT_NAMED 1961-01-22 15:00:00 TS -14.2938 122.954 main 209 204 _________PP___ -1 -14.3149 123.000 TC -14.2726 122.908 1 12 221
1961017S10135 1961 11 SI WA NOT_NAMED 1961-01-22 18:00:00 TS -14.7554 122.540 main 195 173 _________OP___ -1 -14.8000 122.600 TC -14.7108 122.480 1 11 224
1961017S10135 1961 11 SI WA NOT_NAMED 1961-01-22 21:00:00 TS -15.1037 122.133 main 178 168 _________PP___ -1 -15.1101 122.162 TC -15.0973 122.104 1 10 230
1961017S10135 1961 11 SI WA NOT_NAMED 1961-01-22 23:00:00 TS -15.2735 121.902 main 171 171 _________PO___ -1 -15.2470 121.905 TC -15.3000 121.900 2 8 234
1961017S10135 1961 11 SI WA NOT_NAMED 1961-01-23 00:00:00 TS -15.3342 121.809 main 178 170 _________OP___ -1 -15.3000 121.800 TC -15.3684 121.819 2 5 235
1961017S10135 1961 11 SI WA NOT_NAMED 1961-01-23 03:00:00 TS -15.4660 121.616 main 177 177 _________PP___ -1 -15.4299 121.597 TC -15.5022 121.635 2 4 236
1961017S10135 1961 11 SI WA NOT_NAMED 1961-01-23 06:00:00 TS -15.5303 121.509 main 185 177 _________OP___ -1 -15.5000 121.500 TC -15.5605 121.519 2 2 240
1961017S10135 1961 11 SI WA NOT_NAMED 1961-01-23 09:00:00 TS -15.5669 121.439 main 185 185 _________PP___ -1 -15.5500 121.435 TC -15.5839 121.443 2 1 238
1961017S10135 1961 11 SI WA NOT_NAMED 1961-01-23 11:00:00 TS -15.5901 121.406 main 185 185 _________PO___ -1 -15.5802 121.411 TC -15.6000 121.400 1 1 222
1961017S10135 1961 11 SI WA NOT_NAMED 1961-01-23 12:00:00 TS -15.6087 121.393 main 185 178 _________OP___ -1 -15.6000 121.400 TC -15.6175 121.387 1 2 207
1961017S10135 1961 11 SI WA NOT_NAMED 1961-01-23 15:00:00 TS -15.6834 121.365 main 178 177 _________PP___ -1 -15.7000 121.365 TC -15.6669 121.365 1 2 206
1961017S10135 1961 11 SI WA NOT_NAMED 1961-01-23 18:00:00 TS -15.7632 121.315 main 177 177 _________OP___ -1 -15.8000 121.300 TC -15.7265 121.330 1 2 226
1961017S10135 1961 11 SI WA NOT_NAMED 1961-01-23 21:00:00 TS -15.8213 121.216 main 185 178 _________PP___ -1 -15.8274 121.202 TC -15.8153 121.230 1 3 241
1961017S10135 1961 11 SI WA NOT_NAMED 1961-01-23 23:00:00 TS -15.8815 121.092 main 185 185 _________PO___ -1 -15.8630 121.084 TC -15.9000 121.100 2 5 243
1961017S10135 1961 11 SI WA NOT_NAMED 1961-01-24 00:00:00 TS -15.9263 121.002 main 193 185 _________OP___ -1 -15.9000 121.000 TC -15.9525 121.004 2 7 240
1961017S10135 1961 11 SI WA NOT_NAMED 1961-01-24 03:00:00 TS -16.1310 120.647 main 212 207 _________PP___ -1 -16.1199 120.660 TC -16.1420 120.635 2 9 240
1961017S10135 1961 11 SI WA NOT_NAMED 1961-01-24 06:00:00 TS -16.3848 120.187 main 235 235 _________OP___ -1 -16.4000 120.200 TC -16.3697 120.173 2 11 242
1961017S10135 1961 11 SI WA NOT_NAMED 1961-01-24 09:00:00 TS -16.6327 119.668 main 277 277 _________PP___ -1 -16.6425 119.680 TC -16.6229 119.656 2 11 244
1961017S10135 1961 11 SI WA NOT_NAMED 1961-01-24 11:00:00 TS -16.8055 119.298 main 310 310 _________PO___ -1 -16.8109 119.297 TC -16.8000 119.300 2 12 244
1961017S10135 1961 11 SI WA NOT_NAMED 1961-01-24 12:00:00 TS -16.8969 119.108 main 328 328 _________OP___ -1 -16.9000 119.100 TC -16.8938 119.116 2 13 243
1961017S10135 1961 11 SI WA NOT_NAMED 1961-01-24 15:00:00 TS -17.1950 118.504 main 330 313 _________PP___ -1 -17.2002 118.470 TC -17.1898 118.538 2 13 242
1961017S10135 1961 11 SI WA NOT_NAMED 1961-01-24 18:00:00 TS -17.4927 117.934 main 317 297 _________OP___ -1 -17.5000 117.900 TC -17.4853 117.969 2 11 240
1961017S10135 1961 11 SI WA NOT_NAMED 1961-01-24 21:00:00 TS -17.7659 117.475 main 297 292 _________PP___ -1 -17.7798 117.482 TC -17.7520 117.467 2 9 237
1961017S10135 1961 11 SI WA NOT_NAMED 1961-01-24 23:00:00 TS -17.9182 117.240 main 295 284 _________PO___ -1 -17.9363 117.281 TC -17.9000 117.200 2 7 236
1961017S10135 1961 11 SI WA NOT_NAMED 1961-01-25 00:00:00 TS -17.9757 117.152 main 284 280 _________OP___ -1 -18.0000 117.200 TC -17.9515 117.104 2 5 236
1961017S10135 1961 11 SI WA NOT_NAMED 1961-01-25 03:00:00 TS -18.0979 116.959 main 280 268 _________PP___ -1 -18.1299 117.012 TC -18.0659 116.906 2 3 235
1961017S10135 1961 11 SI WA NOT_NAMED 1961-01-25 06:00:00 TS -18.1734 116.851 main 268 268 _________OP___ -1 -18.2000 116.900 TC -18.1468 116.801 2 2 233
1961017S10135 1961 11 SI WA NOT_NAMED 1961-01-25 09:00:00 TS -18.2355 116.770 main 268 257 _________PP___ -1 -18.2425 116.800 TC -18.2285 116.741 2 2 227
1961017S10135 1961 11 SI WA NOT_NAMED 1961-01-25 11:00:00 TS -18.2873 116.718 main 257 257 _________PO___ -1 -18.2745 116.736 TC -18.3000 116.700 2 2 224
1961017S10135 1961 11 SI WA NOT_NAMED 1961-01-25 12:00:00 TS -18.3204 116.683 main 257 246 _________OP___ -1 -18.3000 116.700 TC -18.3409 116.666 2 3 223
1961017S10135 1961 11 SI WA NOT_NAMED 1961-01-25 15:00:00 TS -18.4465 116.561 main 246 224 _________PP___ -1 -18.4125 116.557 TC -18.4805 116.565 2 4 218
1961017S10135 1961 11 SI WA NOT_NAMED 1961-01-25 18:00:00 TS -18.6301 116.428 main 225 194 _________OP___ -1 -18.6000 116.400 TC -18.6603 116.455 2 5 211
1961017S10135 1961 11 SI WA NOT_NAMED 1961-01-25 21:00:00 TS -18.8769 116.291 main 194 175 _________PP___ -1 -18.8549 116.265 TC -18.8989 116.317 2 6 207
1961017S10135 1961 11 SI WA NOT_NAMED 1961-01-25 23:00:00 TS -19.0875 116.181 main 175 168 _________PO___ -1 -19.0750 116.161 TC -19.1000 116.200 2 7 207
1961017S10135 1961 11 SI WA NOT_NAMED 1961-01-26 00:00:00 TS -19.2071 116.112 main 168 139 _________OP___ -1 -19.2000 116.100 TC -19.2141 116.125 2 9 209
1961017S10135 1961 11 SI WA NOT_NAMED 1961-01-26 03:00:00 TS -19.6152 115.869 main 139 109 _________PP___ -1 -19.6200 115.872 TC -19.6105 115.865 2 10 209
1961017S10135 1961 11 SI WA NOT_NAMED 1961-01-26 06:00:00 TS -20.0842 115.587 main 109 83 _________OP___ -1 -20.1000 115.600 TC -20.0683 115.575 2 11 209
1961017S10135 1961 11 SI WA NOT_NAMED 1961-01-26 09:00:00 TS -20.5813 115.287 main 83 76 _________PP___ -1 -20.6001 115.293 TC -20.5626 115.282 2 11 209
1961017S10135 1961 11 SI WA NOT_NAMED 1961-01-26 11:00:00 TS -20.9182 115.096 main 76 67 _________PO___ -1 -20.9364 115.091 TC -20.9000 115.100 4 11 208
1961017S10135 1961 11 SI WA NOT_NAMED 1961-01-26 12:00:00 TS -21.0714 115.003 main 59 24 _________OP___ -1 -21.1000 115.000 TC -21.0428 115.005 4 10 208
1961017S10135 1961 11 SI WA NOT_NAMED 1961-01-26 15:00:00 TS -21.5087 114.753 main 24 0 _________PP___ -1 -21.5424 114.777 TC -21.4750 114.730 4 10 205
1961017S10135 1961 11 SI WA NOT_NAMED 1961-01-26 18:00:00 TS -21.9710 114.548 main 10 0 _________OP___ -1 -22.0000 114.600 TC -21.9421 114.496 4 10 200
1961017S10135 1961 11 SI WA NOT_NAMED 1961-01-26 21:00:00 TS -22.4820 114.377 main 0 0 _________PP___ -1 -22.4825 114.413 TC -22.4815 114.341 4 11 193
1961017S10135 1961 11 SI WA NOT_NAMED 1961-01-26 23:00:00 TS -22.8857 114.312 main 0 0 _________PO___ -1 -22.8715 114.325 TC -22.9000 114.300 2 13 187
1961017S10135 1961 11 SI WA NOT_NAMED 1961-01-27 00:00:00 TS -23.1278 114.291 main 0 0 _________OP___ -1 -23.1000 114.300 TC -23.1556 114.282 2 17 0
1961017S10135 1961 11 SI WA NOT_NAMED 1961-01-27 03:00:00 TS -23.9851 114.288 main 0 0 _________PP___ -1 -23.9624 114.275 TC -24.0079 114.301 2 18 176
1961017S10135 1961 11 SI WA NOT_NAMED 1961-01-27 06:00:00 TS -24.9080 114.421 main 0 0 _________OP___ -1 -24.9000 114.400 TC -24.9160 114.443 2 18 168
1961017S10135 1961 11 SI WA NOT_NAMED 1961-01-27 09:00:00 TS -25.7769 114.696 main 0 0 _________PP___ -1 -25.7673 114.667 TC -25.7866 114.725 2 18 160
1961017S10135 1961 11 SI WA NOT_NAMED 1961-01-27 11:00:00 TS -26.2892 114.969 main 0 0 _________PO___ -1 -26.2784 114.939 TC -26.3000 115.000 2 16 152
1961017S10135 1961 11 SI WA NOT_NAMED 1961-01-27 12:00:00 TS -26.5035 115.122 main 0 0 _________OP___ -1 -26.5000 115.100 TC -26.5070 115.144 2 14 141
1961017S10135 1961 11 SI WA NOT_NAMED 1961-01-27 15:00:00 TS -27.0251 115.647 main 0 0 _________PP___ -1 -27.0093 115.611 TC -27.0409 115.682 2 14 131
1961017S10135 1961 11 SI WA NOT_NAMED 1961-01-27 18:00:00 TS -27.4385 116.335 main 0 0 _________OP___ -1 -27.4000 116.300 TC -27.4770 116.370 2 16 121
1961017S10135 1961 11 SI WA NOT_NAMED 1961-01-27 21:00:00 TS -27.8322 117.182 main 0 0 _________PP___ -1 -27.8073 117.176 TC -27.8571 117.189 2 18 116
1961017S10135 1961 11 SI WA NOT_NAMED 1961-01-27 23:00:00 TS -28.0845 117.824 main 0 0 _________PO___ -1 -28.0691 117.848 TC -28.1000 117.800 2 19 114
1961017S10135 1961 11 SI WA NOT_NAMED 1961-01-28 00:00:00 TS -28.2124 118.160 main 0 0 _________OP___ -1 -28.2000 118.200 TC -28.2248 118.119 2 20 112
1961017S10135 1961 11 SI WA NOT_NAMED 1961-01-28 03:00:00 TS -28.5925 119.226 main 0 0 _________PP___ -1 -28.6073 119.285 TC -28.5776 119.167 2 21 111
1961017S10135 1961 11 SI WA NOT_NAMED 1961-01-28 06:00:00 TS -28.9631 120.349 main 0 0 _________OP___ -1 -29.0000 120.400 TC -28.9261 120.299 2 21 110
1961017S10135 1961 11 SI WA NOT_NAMED 1961-01-28 09:00:00 TS -29.3134 121.455 main 0 0 _________PP___ -1 -29.3190 121.460 TC -29.3077 121.451 2 21 111
1961017S10135 1961 11 SI WA NOT_NAMED 1961-01-28 11:00:00 TS -29.5784 122.177 main 0 0 _________PO___ -1 -29.5569 122.154 TC -29.6000 122.200 2 21 114
1961017S10135 1961 11 SI WA NOT_NAMED 1961-01-28 12:00:00 TS -29.7352 122.536 main 0 0 _________OP___ -1 -29.7000 122.500 TC -29.7617 122.562 2 21 120
1961017S10135 1961 11 SI WA NOT_NAMED 1961-01-28 15:00:00 TS -30.2859 123.583 main 0 0 _________PP___ -1 -30.2493 123.544 TC -30.3041 123.603 2 21 123
1961017S10135 1961 11 SI WA NOT_NAMED 1961-01-28 18:00:00 TS -30.9095 124.595 main 0 0 _________OP___ -1 -30.9000 124.600 TC -30.9126 124.593 2 21 127
1961017S10135 1961 11 SI WA NOT_NAMED 1961-01-28 21:00:00 NR -31.5602 125.559 main 0 0 __________P___ -1 TC -31.5602 125.559 2 21 129
1961017S10135 1961 11 SI WA NOT_NAMED 1961-01-28 23:00:00 NR -32.0000 126.200 main 0 __________O___ -1 TC -32.0000 126.200 2 21 129

デジタル台風データ・検索

IBTrACS Databaseについて

本データベースは、米国NOAAが公開する1842年以降の世界の熱帯低気圧のベストトラックデータアーカイブInternational Best Track Archive for Climate Stewardship (IBTrACS)を、ウェブで閲覧しやすい形式に変換したものです。

最終更新日:2021-10-21